Time;durP1;ratioP1;P1;durP2;ratioP2;P2;SDS_P1;SDS_P2;PMS_P1;PMS_P2;Temp;Humidity;BMP_temperature;BMP_pressure;BME280_temperature;BME280_humidity;BME280_pressure;Samples;Min_cycle;Max_cycle;Signal;HPM_P1;HPM_P2
2024/03/07 00:00:19;;;;;;;2.78;1.45;;;;;;;11.71;63.22;99859.13;4475017;31;33431;-86
2024/03/07 00:02:48;;;;;;;1.23;0.88;;;;;;;11.69;63.42;99861.00;4450812;31;34836;-86
2024/03/07 00:05:20;;;;;;;1.08;1.00;;;;;;;11.54;64.40;99866.06;4478910;31;33612;-86
2024/03/07 00:07:49;;;;;;;0.82;0.82;;;;;;;11.82;63.67;99851.59;4472733;31;33140;-85
2024/03/07 00:10:16;;;;;;;2.60;1.52;;;;;;;11.80;63.43;99853.41;4476408;31;34075;-85
2024/03/07 00:12:45;;;;;;;1.10;1.00;;;;;;;11.82;63.54;99859.53;4488729;31;32530;-83
2024/03/07 00:15:14;;;;;;;0.60;0.60;;;;;;;11.82;63.41;99859.53;4462207;31;33026;-81
2024/03/07 00:17:42;;;;;;;0.55;0.55;;;;;;;12.18;61.90;99862.16;4478976;31;32670;-81
2024/03/07 00:20:19;;;;;;;0.73;0.68;;;;;;;11.85;62.46;99854.06;4477677;31;33257;-81
2024/03/07 00:22:48;;;;;;;1.23;1.23;;;;;;;11.73;63.22;99862.56;4480500;31;33315;-82
2024/03/07 00:25:19;;;;;;;2.12;1.98;;;;;;;11.73;63.37;99854.63;4478999;31;33659;-82
2024/03/07 00:27:47;;;;;;;;;;;;;;;11.70;63.42;99852.97;4480041;31;34744;-82
2024/03/07 00:30:18;;;;;;;3.40;1.60;;;;;;;11.70;63.81;99858.28;4465557;31;33141;-82
2024/03/07 00:32:47;;;;;;;0.93;0.82;;;;;;;11.64;63.88;99860.38;4475813;31;34256;-82
2024/03/07 00:35:16;;;;;;;1.85;1.75;;;;;;;11.70;63.94;99852.12;4479569;31;33826;-82
2024/03/07 00:37:45;;;;;;;3.40;1.17;;;;;;;11.53;64.34;99853.75;4467614;31;32550;-82
2024/03/07 00:40:13;;;;;;;2.25;1.80;;;;;;;11.68;63.95;99852.22;4491616;31;33018;-82
2024/03/07 00:42:41;;;;;;;1.08;1.08;;;;;;;11.72;64.02;99855.53;4492269;31;34278;-84
2024/03/07 00:45:09;;;;;;;1.23;1.23;;;;;;;11.60;64.31;99861.44;4478597;31;32832;-84
2024/03/07 00:47:38;;;;;;;2.47;1.48;;;;;;;11.72;63.71;99856.41;4465655;31;34478;-83
2024/03/07 00:50:08;;;;;;;2.97;2.00;;;;;;;11.59;63.89;99862.38;4478498;31;34189;-83
2024/03/07 00:52:37;;;;;;;0.77;0.47;;;;;;;11.54;64.11;99868.72;4479746;31;34310;-83
2024/03/07 00:55:08;;;;;;;2.50;2.12;;;;;;;11.95;62.36;99859.78;4466150;31;32535;-83
2024/03/07 00:57:36;;;;;;;4.25;1.85;;;;;;;11.57;63.56;99861.56;4478360;31;33668;-83
2024/03/07 01:00:05;;;;;;;3.53;3.08;;;;;;;11.44;64.46;99854.22;4484189;31;33837;-81
2024/03/07 01:02:33;;;;;;;1.05;1.05;;;;;;;11.57;63.98;99857.13;4464541;31;33785;-82
2024/03/07 01:05:07;;;;;;;3.70;1.73;;;;;;;11.59;64.10;99857.06;4465622;31;33960;-82
2024/03/07 01:07:37;;;;;;;3.40;1.75;;;;;;;12.01;62.46;99851.53;4490632;31;34779;-82
2024/03/07 01:10:06;;;;;;;1.10;1.10;;;;;;;11.81;63.18;99847.16;4478904;31;34341;-82
2024/03/07 01:12:34;;;;;;;1.25;1.23;;;;;;;11.69;63.67;99845.97;4466171;31;33034;-83
2024/03/07 01:15:06;;;;;;;1.12;1.10;;;;;;;11.73;63.42;99849.34;4467970;31;33002;-83
2024/03/07 01:17:34;;;;;;;1.70;1.60;;;;;;;11.82;63.31;99848.94;4476780;32;32714;-83
2024/03/07 01:20:02;;;;;;;1.60;1.52;;;;;;;11.63;63.99;99848.03;4475617;31;34742;-83
2024/03/07 01:22:32;;;;;;;1.67;1.52;;;;;;;11.73;63.59;99849.34;4477362;31;33712;-83
2024/03/07 01:25:00;;;;;;;4.22;1.48;;;;;;;11.69;63.91;99843.34;4463916;31;33206;-82
2024/03/07 01:27:27;;;;;;;1.55;1.45;;;;;;;11.66;64.12;99842.63;4463362;31;33140;-83
2024/03/07 01:29:56;;;;;;;2.47;2.17;;;;;;;11.69;63.98;99847.78;4492746;31;34166;-83
2024/03/07 01:32:23;;;;;;;0.65;0.65;;;;;;;11.66;63.92;99842.63;4465322;31;32529;-83
2024/03/07 01:34:52;;;;;;;3.25;1.85;;;;;;;11.72;63.79;99843.16;4463960;31;32812;-83
2024/03/07 01:37:20;;;;;;;1.45;1.35;;;;;;;11.81;63.19;99844.53;4477049;31;33431;-83
2024/03/07 01:39:47;;;;;;;2.42;1.95;;;;;;;11.74;63.34;99835.19;4480390;31;34364;-83
2024/03/07 01:42:16;;;;;;;2.15;1.12;;;;;;;11.60;63.73;99848.22;4490292;31;34327;-82
2024/03/07 01:44:44;;;;;;;0.80;0.52;;;;;;;11.67;62.93;99849.63;4480913;31;34614;-82
2024/03/07 01:47:12;;;;;;;0.70;0.70;;;;;;;11.70;62.65;99849.47;4490069;31;32132;-81
2024/03/07 01:49:40;;;;;;;0.80;0.80;;;;;;;11.73;61.86;99849.34;4475120;31;34158;-83
2024/03/07 01:52:08;;;;;;;1.62;1.52;;;;;;;11.72;61.37;99845.81;4492005;31;33633;-83
2024/03/07 01:54:36;;;;;;;2.12;1.92;;;;;;;11.50;61.83;99848.63;4480348;31;33769;-83
2024/03/07 01:57:04;;;;;;;2.25;1.55;;;;;;;11.48;61.38;99850.47;4462522;31;32991;-83
2024/03/07 01:59:33;;;;;;;1.95;1.70;;;;;;;11.62;60.93;99851.63;4491523;31;33422;-84
2024/03/07 02:02:02;;;;;;;0.55;0.55;;;;;;;11.53;61.33;99848.47;4476398;31;33478;-83
2024/03/07 02:04:30;;;;;;;4.45;1.15;;;;;;;11.72;60.53;99843.16;4480089;31;33622;-83
2024/03/07 02:06:58;;;;;;;0.73;0.73;;;;;;;11.71;59.95;99840.59;4475526;31;33460;-83
2024/03/07 02:09:26;;;;;;;1.23;1.12;;;;;;;11.53;60.39;99845.81;4484578;31;33764;-83
2024/03/07 02:11:54;;;;;;;1.98;0.50;;;;;;;11.27;61.18;99854.13;4488853;31;33512;-84
2024/03/07 02:14:22;;;;;;;3.03;2.60;;;;;;;11.35;60.63;99849.34;4479025;31;34399;-84
2024/03/07 02:16:50;;;;;;;0.68;0.68;;;;;;;11.43;60.54;99841.91;4489921;31;33124;-84
2024/03/07 02:19:17;;;;;;;1.65;1.52;;;;;;;11.34;60.68;99852.91;4476660;31;34241;-83
2024/03/07 02:21:45;;;;;;;1.30;1.20;;;;;;;11.23;61.25;99844.62;4477152;31;34235;-83
2024/03/07 02:24:15;;;;;;;0.75;0.65;;;;;;;11.34;60.68;99841.47;4476324;31;33561;-83
2024/03/07 02:26:43;;;;;;;1.75;1.42;;;;;;;11.22;60.48;99837.62;4465291;31;33328;-83
2024/03/07 02:29:11;;;;;;;1.45;1.37;;;;;;;11.41;59.45;99838.50;4487848;31;32698;-83
2024/03/07 02:31:41;;;;;;;1.75;1.65;;;;;;;11.33;58.14;99842.41;4463263;31;33502;-83
2024/03/07 02:34:09;;;;;;;6.87;0.73;;;;;;;11.35;57.40;99838.78;4491833;31;33843;-83
2024/03/07 02:36:37;;;;;;;0.80;0.80;;;;;;;11.13;57.73;99840.69;4485152;31;33056;-83
2024/03/07 02:39:04;;;;;;;2.25;2.15;;;;;;;10.91;58.82;99843.41;4488133;31;33809;-83
2024/03/07 02:41:33;;;;;;;1.20;1.20;;;;;;;10.83;59.05;99842.91;4464488;31;32546;-83
2024/03/07 02:44:03;;;;;;;4.78;1.30;;;;;;;10.94;58.45;99852.06;4462173;31;33623;-83
2024/03/07 02:46:32;;;;;;;7.90;3.33;;;;;;;10.91;58.25;99840.78;4463154;31;33325;-83
2024/03/07 02:49:00;;;;;;;1.65;1.42;;;;;;;10.71;59.23;99842.50;4452500;31;34220;-82
2024/03/07 02:51:28;;;;;;;0.57;0.55;;;;;;;10.57;59.88;99847.53;4478206;31;33919;-82
2024/03/07 02:53:55;;;;;;;0.60;0.60;;;;;;;10.65;60.08;99841.94;4473407;31;33538;-82
2024/03/07 02:56:26;;;;;;;1.90;1.80;;;;;;;10.63;60.26;99847.25;4476045;31;32502;-81
2024/03/07 02:58:54;;;;;;;1.62;1.50;;;;;;;10.74;59.68;99842.38;4488997;31;33752;-82
2024/03/07 03:01:22;;;;;;;2.03;1.92;;;;;;;10.71;59.67;99844.28;4480929;31;32175;-82
2024/03/07 03:03:50;;;;;;;1.30;1.25;;;;;;;10.35;60.97;99844.97;4474449;31;32775;-82
2024/03/07 03:06:20;;;;;;;1.08;1.08;;;;;;;10.64;59.81;99845.50;4489583;31;33713;-84
2024/03/07 03:08:48;;;;;;;0.85;0.85;;;;;;;10.75;59.48;99840.59;4466747;31;33954;-83
2024/03/07 03:11:16;;;;;;;0.98;0.98;;;;;;;10.69;59.29;99838.25;4473673;31;32867;-85
2024/03/07 03:13:46;;;;;;;3.65;2.17;;;;;;;10.77;58.75;99850.16;4491534;31;32829;-83
2024/03/07 03:16:14;;;;;;;0.73;0.73;;;;;;;10.51;58.88;99845.16;4465135;31;33316;-83
2024/03/07 03:18:42;;;;;;;0.45;0.40;;;;;;;10.60;58.83;99847.41;4478471;31;33602;-84
2024/03/07 03:21:10;;;;;;;1.65;1.55;;;;;;;10.59;58.73;99847.47;4488764;31;33774;-84
2024/03/07 03:23:37;;;;;;;0.35;0.35;;;;;;;10.63;58.69;99849.03;4464278;31;32498;-84
2024/03/07 03:26:06;;;;;;;1.17;0.45;;;;;;;10.55;58.43;99841.47;4491116;31;32698;-84
2024/03/07 03:28:34;;;;;;;2.37;0.57;;;;;;;10.39;58.68;99846.53;4478692;31;34240;-83
2024/03/07 03:31:02;;;;;;;0.80;0.25;;;;;;;10.39;58.40;99846.53;4475997;31;33628;-82
2024/03/07 03:33:30;;;;;;;0.20;0.20;;;;;;;10.42;58.00;99841.13;4473347;31;33873;-84
2024/03/07 03:35:59;;;;;;;0.57;0.57;;;;;;;10.44;57.67;99843.69;4479952;31;32224;-85
2024/03/07 03:38:26;;;;;;;1.27;0.57;;;;;;;10.30;58.12;99846.06;4464908;31;33903;-84
2024/03/07 03:40:55;;;;;;;1.60;1.50;;;;;;;10.29;57.83;99850.47;4474755;31;33388;-82
2024/03/07 03:43:23;;;;;;;0.00;0.00;;;;;;;10.29;57.90;99850.47;4476777;31;32794;-82
2024/03/07 03:45:51;;;;;;;1.17;0.95;;;;;;;10.17;58.34;99851.81;4476314;31;33759;-84
2024/03/07 03:48:19;;;;;;;1.08;1.02;;;;;;;10.13;58.73;99846.72;4479177;31;33912;-84
2024/03/07 03:50:48;;;;;;;1.17;1.12;;;;;;;10.01;58.88;99846.28;4477342;31;32923;-84
2024/03/07 03:53:15;;;;;;;0.20;0.20;;;;;;;10.09;58.66;99847.78;4477736;31;32905;-84
2024/03/07 03:55:43;;;;;;;0.60;0.60;;;;;;;10.01;58.83;99846.28;4478391;31;33816;-84
2024/03/07 03:58:11;;;;;;;1.00;0.68;;;;;;;9.95;59.39;99851.81;4489241;31;35371;-84
2024/03/07 04:00:39;;;;;;;0.30;0.30;;;;;;;9.92;59.28;99851.97;4465636;31;32909;-84
2024/03/07 04:03:07;;;;;;;1.10;1.10;;;;;;;9.83;59.79;99851.47;4471459;31;33775;-84
2024/03/07 04:05:34;;;;;;;0.47;0.47;;;;;;;10.06;59.04;99853.16;4477686;31;33378;-84
2024/03/07 04:08:04;;;;;;;0.50;0.50;;;;;;;9.86;59.57;99857.47;4477443;31;33432;-85
2024/03/07 04:10:31;;;;;;;0.00;0.00;;;;;;;9.83;59.85;99852.34;4464549;31;32658;-85
2024/03/07 04:12:59;;;;;;;0.55;0.55;;;;;;;9.71;60.11;99853.66;4466775;31;33304;-85
2024/03/07 04:15:30;;;;;;;2.05;1.27;;;;;;;9.76;59.92;99856.13;4478803;31;33708;-85
2024/03/07 04:18:02;;;;;;;1.17;1.15;;;;;;;9.60;60.33;99857.66;4467646;31;32651;-85
2024/03/07 04:20:30;;;;;;;5.72;0.40;;;;;;;9.78;59.66;99858.69;4480079;31;33965;-83
2024/03/07 04:22:58;;;;;;;0.08;0.08;;;;;;;9.81;59.59;99855.94;4466399;31;32797;-83
2024/03/07 04:25:26;;;;;;;1.55;1.25;;;;;;;9.71;60.24;99860.72;4466037;31;33570;-82
2024/03/07 04:27:53;;;;;;;2.87;1.23;;;;;;;9.74;60.30;99863.25;4478625;31;32718;-83
2024/03/07 04:30:21;;;;;;;2.67;1.85;;;;;;;9.51;60.97;99873.81;4477255;31;32475;-83
2024/03/07 04:32:49;;;;;;;0.30;0.30;;;;;;;9.59;61.07;99874.34;4493041;31;33778;-83
2024/03/07 04:35:17;;;;;;;0.00;0.00;;;;;;;9.57;60.70;99876.22;4476386;31;33895;-84
2024/03/07 04:37:46;;;;;;;0.20;0.20;;;;;;;9.70;60.45;99880.97;4489155;31;34209;-84
2024/03/07 04:40:15;;;;;;;8.38;1.67;;;;;;;9.63;60.60;99882.09;4490765;31;34381;-83
2024/03/07 04:42:45;;;;;;;0.10;0.10;;;;;;;9.49;61.26;99872.09;4471516;31;32826;-84
2024/03/07 04:45:13;;;;;;;1.17;1.17;;;;;;;9.44;61.38;99873.16;4475388;31;33937;-85
2024/03/07 04:47:42;;;;;;;1.65;0.82;;;;;;;9.42;61.20;99882.94;4476177;31;32820;-84
2024/03/07 04:50:12;;;;;;;2.42;1.08;;;;;;;9.30;61.58;99873.69;4481024;31;32184;-84
2024/03/07 04:52:40;;;;;;;0.85;0.85;;;;;;;9.40;61.31;99880.34;4478848;31;33752;-82
2024/03/07 04:55:10;;;;;;;1.08;1.08;;;;;;;9.31;61.41;99878.06;4474528;31;31555;-82
2024/03/07 04:57:39;;;;;;;0.17;0.17;;;;;;;9.22;61.42;99881.91;4491701;31;34858;-83
2024/03/07 05:00:15;;;;;;;0.13;0.13;;;;;;;9.28;61.37;99875.53;4491583;31;33505;-82
2024/03/07 05:02:47;;;;;;;0.90;0.90;;;;;;;9.13;61.87;99881.38;4477754;31;33923;-82
2024/03/07 05:05:21;;;;;;;5.07;0.62;;;;;;;9.27;61.37;99889.63;4492033;31;33864;-84
2024/03/07 05:07:51;;;;;;;0.50;0.50;;;;;;;9.41;60.58;99887.34;4467839;31;33491;-84
2024/03/07 05:10:20;;;;;;;0.68;0.68;;;;;;;9.25;60.90;99888.81;4489574;31;31922;-84
2024/03/07 05:12:48;;;;;;;2.05;1.83;;;;;;;9.42;60.47;99888.19;4477028;31;32709;-83
2024/03/07 05:15:17;;;;;;;0.68;0.68;;;;;;;9.44;60.22;99892.47;4476569;31;32632;-83
2024/03/07 05:17:45;;;;;;;0.30;0.20;;;;;;;9.34;60.55;99891.09;4471654;31;33818;-84
2024/03/07 05:20:13;;;;;;;0.37;0.37;;;;;;;9.24;60.30;99895.00;4478851;31;32884;-84
2024/03/07 05:22:47;;;;;;;1.35;1.25;;;;;;;9.38;59.50;99892.72;4475521;31;33790;-84
2024/03/07 05:25:16;;;;;;;0.40;0.40;;;;;;;9.26;60.25;99892.31;4477790;31;32665;-84
2024/03/07 05:27:50;;;;;;;0.60;0.60;;;;;;;9.27;60.27;99889.63;4475796;31;32401;-84
2024/03/07 05:30:19;;;;;;;1.00;0.88;;;;;;;9.16;60.38;99897.94;4481816;31;33966;-84
2024/03/07 05:32:47;;;;;;;0.88;0.88;;;;;;;9.31;60.16;99901.78;4477188;31;32918;-84
2024/03/07 05:35:16;;;;;;;0.15;0.15;;;;;;;9.26;60.37;99898.47;4459469;31;33323;-84
2024/03/07 05:37:50;;;;;;;1.58;1.48;;;;;;;9.15;60.83;99905.88;4481058;31;33816;-84
2024/03/07 05:40:19;;;;;;;1.55;0.70;;;;;;;9.11;60.80;99902.47;4477196;31;33330;-84
2024/03/07 05:42:46;;;;;;;3.83;1.10;;;;;;;9.16;60.74;99904.94;4477738;31;33532;-84
2024/03/07 05:45:14;;;;;;;0.28;0.28;;;;;;;9.06;61.34;99911.47;4492235;31;34674;-85
2024/03/07 05:47:47;;;;;;;0.17;0.17;;;;;;;9.21;60.83;99906.53;4478515;31;35122;-84
2024/03/07 05:50:16;;;;;;;3.85;2.28;;;;;;;9.24;60.79;99911.66;4480283;31;32598;-83
2024/03/07 05:52:44;;;;;;;0.10;0.10;;;;;;;9.21;60.84;99916.22;4488978;31;33532;-83
2024/03/07 05:55:11;;;;;;;2.20;2.05;;;;;;;9.19;61.03;99915.38;4478094;31;34417;-84
2024/03/07 05:57:39;;;;;;;1.80;0.47;;;;;;;9.28;60.75;99924.75;4490949;31;34761;-83
2024/03/07 06:00:12;;;;;;;2.83;0.45;;;;;;;9.32;60.96;99929.00;4489123;31;32670;-84
2024/03/07 06:02:39;;;;;;;0.43;0.43;;;;;;;9.38;60.74;99924.34;4474853;31;33721;-84
2024/03/07 06:05:15;;;;;;;3.60;0.82;;;;;;;9.42;60.92;99925.09;4473683;31;33254;-83
2024/03/07 06:07:45;;;;;;;0.95;0.95;;;;;;;9.36;61.36;99920.91;4476966;31;33420;-83
2024/03/07 06:10:16;;;;;;;0.15;0.15;;;;;;;9.43;61.34;99927.66;4475484;31;32964;-84
2024/03/07 06:12:45;;;;;;;1.50;1.40;;;;;;;9.60;60.54;99929.69;4476670;31;33101;-85
2024/03/07 06:15:31;;;;;;;0.73;0.70;;;;;;;9.64;59.92;99930.44;4477074;31;32612;-83
2024/03/07 06:17:59;;;;;;;1.60;1.00;;;;;;;9.67;59.71;99925.03;4474289;31;33113;-83
2024/03/07 06:20:27;;;;;;;2.37;1.40;;;;;;;9.74;59.60;99929.16;4476101;31;33052;-82
2024/03/07 06:22:57;;;;;;;1.90;1.80;;;;;;;9.77;59.59;99931.66;4487175;31;33178;-83
2024/03/07 06:25:36;;;;;;;0.45;0.45;;;;;;;9.75;59.81;99928.25;4467482;31;32835;-83
2024/03/07 06:28:10;;;;;;;0.70;0.70;;;;;;;9.83;59.37;99927.97;4462659;31;32894;-82
2024/03/07 06:30:41;;;;;;;1.80;1.70;;;;;;;10.01;58.79;99930.72;4465801;31;33006;-82
2024/03/07 06:33:09;;;;;;;0.73;0.50;;;;;;;9.87;58.69;99935.66;4473277;31;33345;-82
2024/03/07 06:35:38;;;;;;;0.73;0.73;;;;;;;10.01;57.98;99935.97;4475717;31;36122;-82
2024/03/07 06:38:10;;;;;;;1.27;1.27;;;;;;;9.93;58.49;99934.59;4486016;31;33144;-83
2024/03/07 06:40:45;;;;;;;1.50;1.30;;;;;;;9.98;58.49;99936.12;4483466;31;33347;-83
2024/03/07 06:43:13;;;;;;;1.62;1.52;;;;;;;10.09;57.58;99929.56;4463114;31;32788;-82
2024/03/07 06:45:41;;;;;;;0.32;0.32;;;;;;;9.91;58.11;99934.63;4462494;31;33920;-82
2024/03/07 06:48:09;;;;;;;2.37;1.17;;;;;;;10.06;57.68;99940.22;4459116;31;32764;-83
2024/03/07 06:50:38;;;;;;;0.22;0.22;;;;;;;10.28;56.80;99941.13;4485099;31;33223;-84
2024/03/07 06:53:07;;;;;;;0.28;0.28;;;;;;;10.05;58.10;99941.16;4485864;31;34067;-82
2024/03/07 06:55:37;;;;;;;0.10;0.10;;;;;;;10.61;51.36;99932.75;4462375;31;34780;-81
2024/03/07 06:58:05;;;;;;;0.35;0.35;;;;;;;10.60;52.37;99938.97;4464331;31;32794;-81
2024/03/07 07:00:35;;;;;;;0.37;0.37;;;;;;;10.23;53.36;99940.44;4474940;31;33148;-82
2024/03/07 07:03:04;;;;;;;0.05;0.05;;;;;;;10.29;52.67;99952.53;4487805;31;33910;-82
2024/03/07 07:05:34;;;;;;;0.13;0.13;;;;;;;10.21;52.76;99942.28;4476071;31;35336;-82
2024/03/07 07:08:02;;;;;;;0.00;0.00;;;;;;;9.91;51.22;99952.22;4488926;31;34212;-81
2024/03/07 07:10:30;;;;;;;0.00;0.00;;;;;;;9.71;50.87;99950.38;4477563;31;33922;-81
2024/03/07 07:12:57;;;;;;;0.00;0.00;;;;;;;9.88;51.24;99953.22;4486859;31;34182;-81
2024/03/07 07:15:25;;;;;;;0.10;0.10;;;;;;;9.67;51.41;99956.66;4475488;31;33696;-81
2024/03/07 07:17:55;;;;;;;0.05;0.05;;;;;;;10.07;50.03;99949.88;4474021;31;35790;-81
2024/03/07 07:20:23;;;;;;;0.13;0.13;;;;;;;9.97;50.65;99954.66;4462146;31;32633;-80
2024/03/07 07:22:53;;;;;;;0.10;0.10;;;;;;;9.70;51.52;99959.19;4490404;31;33544;-81
2024/03/07 07:25:21;;;;;;;0.00;0.00;;;;;;;10.20;50.81;99956.37;4475710;31;34900;-81
2024/03/07 07:27:51;;;;;;;0.10;0.10;;;;;;;9.51;50.94;99960.81;4477628;31;33845;-80
2024/03/07 07:30:23;;;;;;;1.42;1.33;;;;;;;9.80;51.00;99963.19;4474735;31;35290;-81
2024/03/07 07:32:51;;;;;;;0.00;0.00;;;;;;;10.21;49.61;99952.84;4475942;31;33326;-81
2024/03/07 07:35:20;;;;;;;0.08;0.08;;;;;;;10.10;50.84;99961.16;4489337;31;34020;-81
2024/03/07 07:37:51;;;;;;;0.20;0.20;;;;;;;10.36;50.09;99956.66;4481086;31;33350;-80
2024/03/07 07:40:22;;;;;;;0.37;0.37;;;;;;;10.31;49.42;99958.62;4488924;31;34491;-81
2024/03/07 07:42:52;;;;;;;0.50;0.50;;;;;;;10.07;50.24;99965.72;4489105;31;32850;-80
2024/03/07 07:45:21;;;;;;;0.00;0.00;;;;;;;10.20;49.09;99969.56;4465346;31;32830;-81
2024/03/07 07:47:54;;;;;;;0.03;0.03;;;;;;;10.01;50.64;99965.00;4465721;31;34084;-80
2024/03/07 07:50:23;;;;;;;0.10;0.10;;;;;;;10.08;49.75;99970.91;4486674;31;34398;-80
2024/03/07 07:52:57;;;;;;;0.47;0.47;;;;;;;10.17;50.45;99962.66;4467045;31;32237;-80
2024/03/07 07:55:29;;;;;;;0.35;0.35;;;;;;;10.46;49.04;99968.56;4477598;31;33457;-80
2024/03/07 07:57:58;;;;;;;0.98;0.30;;;;;;;10.45;48.61;99966.88;4475014;31;34340;-80
2024/03/07 08:00:30;;;;;;;0.00;0.00;;;;;;;10.32;49.58;99970.91;4470049;31;33694;-80
2024/03/07 08:03:05;;;;;;;0.20;0.20;;;;;;;10.15;49.91;99979.44;4487730;31;33869;-81
2024/03/07 08:05:35;;;;;;;0.85;0.85;;;;;;;9.97;50.46;99978.41;4476841;31;33596;-81
2024/03/07 08:08:06;;;;;;;0.00;0.00;;;;;;;10.09;50.31;99982.31;4485480;31;34072;-81
2024/03/07 08:10:36;;;;;;;0.25;0.25;;;;;;;10.10;50.96;99981.41;4490387;31;33309;-81
2024/03/07 08:13:13;;;;;;;0.00;0.00;;;;;;;10.20;49.49;99983.63;4486320;31;34461;-81
2024/03/07 08:15:41;;;;;;;1.15;0.25;;;;;;;10.21;49.60;99985.34;4474773;31;32682;-81
2024/03/07 08:18:10;;;;;;;0.00;0.00;;;;;;;10.03;49.56;99985.22;4478795;31;32705;-81
2024/03/07 08:20:40;;;;;;;0.35;0.35;;;;;;;10.15;49.61;99995.28;4472356;31;32865;-81
2024/03/07 08:23:09;;;;;;;0.43;0.35;;;;;;;10.33;48.75;99989.31;4488523;31;34027;-81
2024/03/07 08:25:40;;;;;;;0.20;0.20;;;;;;;10.42;48.48;99982.81;4476540;31;33476;-82
2024/03/07 08:28:08;;;;;;;0.00;0.00;;;;;;;10.03;50.17;99988.72;4485542;31;31878;-81
2024/03/07 08:30:36;;;;;;;0.10;0.10;;;;;;;10.00;49.52;99988.81;4486376;31;31261;-81
2024/03/07 08:33:05;;;;;;;0.35;0.35;;;;;;;10.14;49.35;99996.19;4487805;31;34314;-81
2024/03/07 08:35:34;;;;;;;0.10;0.05;;;;;;;9.56;50.70;100006.31;4477797;31;34747;-82
2024/03/07 08:38:03;;;;;;;0.00;0.00;;;;;;;9.67;51.09;100002.34;4462835;31;33455;-81
2024/03/07 08:40:32;;;;;;;0.08;0.08;;;;;;;10.26;48.24;99995.78;4477738;31;32480;-81
2024/03/07 08:43:01;;;;;;;0.20;0.20;;;;;;;10.10;49.71;100000.72;4476695;31;33521;-81
2024/03/07 08:45:33;;;;;;;0.08;0.08;;;;;;;9.75;51.01;100013.47;4488192;31;33550;-81
2024/03/07 08:48:09;;;;;;;0.00;0.00;;;;;;;9.91;49.40;100007.63;4477189;31;33671;-81
2024/03/07 08:50:38;;;;;;;1.52;0.50;;;;;;;9.95;49.11;100010.09;4476920;31;32313;-81
2024/03/07 08:53:08;;;;;;;0.00;0.00;;;;;;;9.86;50.02;100015.72;4475978;31;32609;-81
2024/03/07 08:55:39;;;;;;;0.10;0.10;;;;;;;10.07;49.56;100007.94;4463340;31;34278;-81
2024/03/07 08:58:08;;;;;;;1.55;1.25;;;;;;;9.98;49.60;100009.13;4489089;31;34288;-81
2024/03/07 09:00:37;;;;;;;0.37;0.37;;;;;;;9.84;50.82;100017.56;4488216;31;33980;-81
2024/03/07 09:03:09;;;;;;;0.10;0.10;;;;;;;10.11;49.11;100009.50;4476277;31;34070;-81
2024/03/07 09:05:40;;;;;;;0.50;0.50;;;;;;;9.85;49.83;100010.50;4479042;31;33645;-81
2024/03/07 09:08:08;;;;;;;1.27;0.98;;;;;;;9.86;49.99;100022.75;4476232;31;34174;-81
2024/03/07 09:10:41;;;;;;;0.00;0.00;;;;;;;9.88;50.01;100013.87;4475859;31;32749;-81
2024/03/07 09:13:09;;;;;;;;;;;;;;;10.14;50.38;100012.03;4470600;31;33975;-82
2024/03/07 09:15:37;;;;;;;0.00;0.00;;;;;;;10.14;49.27;100014.66;4482289;31;33920;-81
2024/03/07 09:18:05;;;;;;;0.00;0.00;;;;;;;10.30;49.71;100023.72;4475498;31;32325;-81
2024/03/07 09:20:34;;;;;;;0.82;0.55;;;;;;;10.17;49.53;100023.34;4488658;31;32687;-81
2024/03/07 09:23:02;;;;;;;0.20;0.17;;;;;;;10.29;49.34;100014.09;4475646;31;33259;-81
2024/03/07 09:25:32;;;;;;;0.00;0.00;;;;;;;10.39;48.08;100026.00;4477290;31;33918;-81
2024/03/07 09:28:01;;;;;;;0.28;0.28;;;;;;;10.17;48.95;100020.69;4475168;31;34058;-81
2024/03/07 09:30:30;;;;;;;0.00;0.00;;;;;;;10.23;48.91;100019.59;4487956;31;33537;-81
2024/03/07 09:32:58;;;;;;;0.62;0.40;;;;;;;9.85;50.10;100024.53;4475364;31;33159;-81
2024/03/07 09:35:26;;;;;;;0.03;0.03;;;;;;;10.07;50.32;100029.03;4490105;31;32913;-81
2024/03/07 09:37:54;;;;;;;0.03;0.03;;;;;;;9.83;51.00;100031.66;4474828;31;34257;-81
2024/03/07 09:40:25;;;;;;;0.00;0.00;;;;;;;9.83;50.99;100028.19;4472740;31;33086;-81
2024/03/07 09:42:57;;;;;;;0.77;0.73;;;;;;;10.30;49.51;100025.50;4473050;32;33917;-81
2024/03/07 09:45:29;;;;;;;0.27;0.27;;;;;;;10.18;48.81;100026.84;4465301;31;34073;-80
2024/03/07 09:47:57;;;;;;;0.03;0.03;;;;;;;10.48;48.24;100030.94;4462018;31;33367;-80
2024/03/07 09:50:29;;;;;;;0.00;0.00;;;;;;;10.19;49.56;100033.81;4474084;31;30677;-81
2024/03/07 09:52:58;;;;;;;0.00;0.00;;;;;;;10.22;48.86;100031.94;4486958;31;32749;-80
2024/03/07 09:55:26;;;;;;;1.23;0.77;;;;;;;10.35;49.29;100031.47;4475461;31;33495;-81
2024/03/07 09:57:55;;;;;;;0.22;0.22;;;;;;;10.30;48.94;100036.06;4487583;31;34445;-80
2024/03/07 10:00:25;;;;;;;0.30;0.30;;;;;;;10.29;48.83;100029.94;4491328;31;33324;-81
2024/03/07 10:03:06;;;;;;;0.70;0.70;;;;;;;10.71;48.08;100031.81;4474485;31;34075;-81
2024/03/07 10:05:34;;;;;;;0.85;0.62;;;;;;;10.49;48.92;100034.44;4477691;31;32757;-81
2024/03/07 10:08:03;;;;;;;0.10;0.10;;;;;;;10.65;48.56;100024.13;4465500;31;32546;-81
2024/03/07 10:10:31;;;;;;;0.22;0.22;;;;;;;10.61;48.92;100030.47;4490577;31;32029;-81
2024/03/07 10:12:59;;;;;;;0.10;0.10;;;;;;;10.17;49.50;100027.75;4488006;31;34205;-81
2024/03/07 10:15:29;;;;;;;0.45;0.45;;;;;;;10.49;48.92;100031.78;4466599;31;30286;-80
2024/03/07 10:17:57;;;;;;;0.40;0.40;;;;;;;10.99;48.00;100032.38;4475071;31;34065;-81
2024/03/07 10:20:25;;;;;;;0.20;0.20;;;;;;;10.83;48.48;100033.97;4487821;31;33327;-81
2024/03/07 10:22:53;;;;;;;0.00;0.00;;;;;;;10.51;48.65;100045.81;4479170;31;33835;-81
2024/03/07 10:25:27;;;;;;;0.28;0.28;;;;;;;10.25;48.53;100044.16;4463945;31;33349;-81
2024/03/07 10:28:00;;;;;;;0.10;0.10;;;;;;;10.60;48.43;100049.88;4463731;31;33393;-80
2024/03/07 10:30:28;;;;;;;0.20;0.20;;;;;;;10.46;47.79;100040.72;4476062;31;32393;-80
2024/03/07 10:32:57;;;;;;;0.00;0.00;;;;;;;10.14;48.81;100046.34;4490572;31;34357;-81
2024/03/07 10:35:28;;;;;;;0.65;0.10;;;;;;;10.37;48.58;100046.34;4463282;31;32503;-80
2024/03/07 10:38:06;;;;;;;4.22;0.35;;;;;;;10.36;48.43;100049.06;4491844;31;34997;-81
2024/03/07 10:40:40;;;;;;;0.28;0.28;;;;;;;10.88;47.53;100049.63;4462156;31;32675;-80
2024/03/07 10:43:14;;;;;;;2.20;0.80;;;;;;;10.79;47.46;100050.84;4476062;31;34978;-80
2024/03/07 10:45:48;;;;;;;0.10;0.10;;;;;;;10.38;48.34;100050.69;4462421;31;33873;-81
2024/03/07 10:48:19;;;;;;;0.20;0.20;;;;;;;10.41;47.84;100055.88;4487656;31;33847;-80
2024/03/07 10:51:18;;;;;;;0.65;0.65;;;;;;;10.03;48.96;100059.09;4465040;31;33102;-80
2024/03/07 10:53:57;;;;;;;0.75;0.20;;;;;;;9.86;49.56;100055.28;4474628;31;33013;-80
2024/03/07 10:57:08;;;;;;;0.00;0.00;;;;;;;9.88;49.56;100061.37;4484992;31;32854;-80
2024/03/07 10:59:38;;;;;;;0.30;0.25;;;;;;;10.09;49.04;100062.34;4477492;31;33256;-80
2024/03/07 11:02:19;;;;;;;0.08;0.08;;;;;;;10.07;49.67;100060.69;4477072;31;32939;-81
2024/03/07 11:04:49;;;;;;;4.03;0.55;;;;;;;9.95;49.25;100056.72;4477054;31;33096;-81
2024/03/07 11:07:20;;;;;;;0.57;0.57;;;;;;;10.23;49.62;100053.91;4475241;31;33685;-80
2024/03/07 11:09:55;;;;;;;0.20;0.20;;;;;;;10.50;48.67;100060.78;4466775;31;34617;-81
2024/03/07 11:12:24;;;;;;;0.00;0.00;;;;;;;10.46;48.78;100056.53;4463422;31;32887;-80
2024/03/07 11:14:52;;;;;;;0.47;0.47;;;;;;;10.35;49.27;100057.87;4475684;31;32898;-80
2024/03/07 11:17:21;;;;;;;0.10;0.10;;;;;;;11.04;46.62;100050.69;4475720;31;33188;-80
2024/03/07 11:19:49;;;;;;;1.30;1.20;;;;;;;10.83;47.88;100046.31;4474581;31;33913;-82
2024/03/07 11:22:34;;;;;;;0.50;0.50;;;;;;;11.18;46.63;100044.84;4488097;31;33273;-81
2024/03/07 11:25:06;;;;;;;0.80;0.80;;;;;;;10.84;47.47;100051.53;4476253;31;32865;-81
2024/03/07 11:27:38;;;;;;;0.68;0.68;;;;;;;10.64;47.84;100051.47;4476235;31;32738;-81
2024/03/07 11:30:10;;;;;;;2.17;1.40;;;;;;;10.98;46.92;100048.31;4490949;31;33787;-81
2024/03/07 11:32:38;;;;;;;1.75;0.85;;;;;;;10.75;48.02;100046.59;4465830;31;32449;-81
2024/03/07 11:35:15;;;;;;;0.62;0.62;;;;;;;10.80;47.59;100039.34;4488188;31;34968;-81
2024/03/07 11:37:46;;;;;;;0.62;0.62;;;;;;;10.83;47.41;100047.16;4473119;31;33869;-81
2024/03/07 11:40:20;;;;;;;0.63;0.63;;;;;;;10.78;47.66;100033.28;4486184;31;33857;-81
2024/03/07 11:42:49;;;;;;;0.00;0.00;;;;;;;10.61;49.01;100035.75;4472802;31;32951;-82
2024/03/07 11:45:29;;;;;;;1.00;0.90;;;;;;;10.48;49.44;100041.50;4475596;31;33319;-81